Time;durP1;ratioP1;P1;durP2;ratioP2;P2;SDS_P1;SDS_P2;PMS_P1;PMS_P2;Temp;Humidity;BMP_temperature;BMP_pressure;BME280_temperature;BME280_humidity;BME280_pressure;Samples;Min_cycle;Max_cycle;Signal;HPM_P1;HPM_P2
2021/06/05 00:01:28;;;;;;;7.70;4.40;;;19.10;99.90;;;;;;5031490;28;20502;-50
2021/06/05 00:03:55;;;;;;;5.90;4.30;;;18.90;99.90;;;;;;5030312;28;20452;-51
2021/06/05 00:06:24;;;;;;;5.97;4.13;;;18.90;99.90;;;;;;5031608;28;20502;-51
2021/06/05 00:08:51;;;;;;;5.80;3.47;;;18.80;99.90;;;;;;5032217;28;20448;-51
2021/06/05 00:11:23;;;;;;;5.60;3.60;;;18.70;99.90;;;;;;5015962;28;20491;-51
2021/06/05 00:13:55;;;;;;;3.30;3.10;;;18.60;99.90;;;;;;5013491;28;20445;-51
2021/06/05 00:16:23;;;;;;;4.13;2.73;;;18.70;99.90;;;;;;5031222;28;20476;-50
2021/06/05 00:18:50;;;;;;;4.20;2.33;;;18.50;99.90;;;;;;5032096;28;20456;-51
2021/06/05 00:21:23;;;;;;;6.03;4.10;;;18.30;99.90;;;;;;5031889;28;20449;-51
2021/06/05 00:23:50;;;;;;;8.60;2.77;;;18.10;99.90;;;;;;5031599;28;20977;-51
2021/06/05 00:26:20;;;;;;;5.93;2.60;;;17.90;99.90;;;;;;5030962;28;20480;-51
2021/06/05 00:28:46;;;;;;;3.63;2.83;;;17.50;99.90;;;;;;5032030;28;20448;-51
2021/06/05 00:31:14;;;;;;;4.10;2.43;;;17.30;99.90;;;;;;5030041;28;20516;-52
2021/06/05 00:33:41;;;;;;;4.73;2.47;;;17.30;99.90;;;;;;5031451;28;20456;-51
2021/06/05 00:36:09;;;;;;;4.00;2.23;;;17.20;99.90;;;;;;5029368;28;20453;-52
2021/06/05 00:38:36;;;;;;;4.47;2.50;;;17.20;99.90;;;;;;5031627;28;20452;-51
2021/06/05 00:41:05;;;;;;;2.50;2.30;;;17.00;99.90;;;;;;5016977;28;20946;-51
2021/06/05 00:43:38;;;;;;;3.10;2.50;;;16.80;99.90;;;;;;5033474;28;21016;-51
2021/06/05 00:46:05;;;;;;;7.60;4.60;;;16.70;99.90;;;;;;5038464;28;20467;-51
2021/06/05 00:48:33;;;;;;;6.67;2.40;;;16.60;99.90;;;;;;5038411;28;20498;-50
2021/06/05 00:51:00;;;;;;;2.40;2.20;;;16.40;99.90;;;;;;5038264;28;20878;-51
2021/06/05 00:53:29;;;;;;;4.40;2.90;;;16.40;99.90;;;;;;5035792;28;20992;-52
2021/06/05 00:55:57;;;;;;;2.93;2.67;;;16.30;99.90;;;;;;5038180;28;20449;-50
2021/06/05 00:58:25;;;;;;;2.70;2.50;;;16.30;99.90;;;;;;5038271;28;20456;-51
2021/06/05 01:00:54;;;;;;;3.53;2.50;;;16.30;99.90;;;;;;5031440;28;20828;-51
2021/06/05 01:03:22;;;;;;;7.60;2.87;;;16.40;99.90;;;;;;5036986;28;20441;-51
2021/06/05 01:05:55;;;;;;;3.93;3.10;;;16.30;99.90;;;;;;5037131;28;20451;-51
2021/06/05 01:08:28;;;;;;;7.93;3.03;;;16.30;99.90;;;;;;5027784;28;20499;-51
2021/06/05 01:11:12;;;;;;;6.80;3.37;;;16.30;99.90;;;;;;5019505;28;20507;-51
2021/06/05 01:13:47;;;;;;;5.90;2.83;;;16.40;99.90;;;;;;5028885;28;20448;-52
2021/06/05 01:16:19;;;;;;;3.17;2.80;;;16.50;99.90;;;;;;5037533;28;20836;-52
2021/06/05 01:18:51;;;;;;;6.80;2.67;;;16.60;99.90;;;;;;5037348;28;20982;-51
2021/06/05 01:21:53;;;;;;;4.23;2.80;;;16.80;99.90;;;;;;5035554;28;20494;-51
2021/06/05 01:24:52;;;;;;;5.67;3.23;;;16.90;99.90;;;;;;5035890;28;20452;-51
2021/06/05 01:27:24;;;;;;;3.63;2.80;;;16.90;99.90;;;;;;5038197;28;21020;-51
2021/06/05 01:29:54;;;;;;;3.77;2.50;;;17.00;99.90;;;;;;5037533;28;20578;-52
2021/06/05 01:32:21;;;;;;;2.80;2.17;;;17.10;99.90;;;;;;5036519;28;20476;-52
2021/06/05 01:34:50;;;;;;;3.07;2.00;;;17.10;99.90;;;;;;5037807;28;20452;-52
2021/06/05 01:37:17;;;;;;;6.17;2.03;;;17.00;99.90;;;;;;5033546;28;20462;-50
2021/06/05 01:39:46;;;;;;;2.60;2.40;;;16.80;99.90;;;;;;5024985;28;20463;-51
2021/06/05 01:42:17;;;;;;;3.40;2.00;;;16.70;99.90;;;;;;5036682;28;20451;-51
2021/06/05 01:44:50;;;;;;;2.93;2.10;;;16.70;99.90;;;;;;5037136;28;20847;-52
2021/06/05 01:47:17;;;;;;;4.17;2.57;;;16.60;99.90;;;;;;5037741;28;20468;-51
2021/06/05 01:49:45;;;;;;;4.53;2.23;;;16.60;99.90;;;;;;5037081;28;20502;-51
2021/06/05 01:52:20;;;;;;;3.47;2.13;;;16.60;99.90;;;;;;5036602;28;20484;-52
2021/06/05 01:54:53;;;;;;;5.13;2.20;;;16.50;99.90;;;;;;5035431;28;20448;-51
2021/06/05 01:57:24;;;;;;;2.83;2.23;;;16.40;99.90;;;;;;5034440;28;20477;-51
2021/06/05 01:59:52;;;;;;;2.97;2.63;;;16.40;99.90;;;;;;5033690;28;20456;-51
2021/06/05 02:02:19;;;;;;;8.93;2.90;;;16.40;99.90;;;;;;5034201;28;20449;-51
2021/06/05 02:04:47;;;;;;;3.20;2.20;;;16.40;99.90;;;;;;5034562;28;20448;-51
2021/06/05 02:07:15;;;;;;;4.50;2.00;;;16.40;99.90;;;;;;5033170;28;20508;-51
2021/06/05 02:09:41;;;;;;;4.43;2.30;;;16.40;99.90;;;;;;5033785;28;20456;-50
2021/06/05 02:12:15;;;;;;;3.33;2.40;;;16.60;99.90;;;;;;5033247;28;20480;-50
2021/06/05 02:14:45;;;;;;;4.57;2.27;;;16.70;99.90;;;;;;5015510;28;20520;-50
2021/06/05 02:17:13;;;;;;;3.43;2.40;;;16.60;99.90;;;;;;5030494;28;20468;-51
2021/06/05 02:19:43;;;;;;;2.20;2.00;;;16.60;99.90;;;;;;5034421;28;20464;-50
2021/06/05 02:22:15;;;;;;;3.30;1.90;;;16.70;99.90;;;;;;5032396;28;20440;-50
2021/06/05 02:24:44;;;;;;;7.03;2.17;;;16.70;99.90;;;;;;5033356;28;20810;-50
2021/06/05 02:27:14;;;;;;;2.30;2.10;;;16.80;99.90;;;;;;5032877;28;20499;-50
2021/06/05 02:29:42;;;;;;;2.10;1.90;;;16.80;99.90;;;;;;5017115;28;20450;-49
2021/06/05 02:32:10;;;;;;;2.80;1.93;;;16.80;99.90;;;;;;5013828;28;20516;-50
2021/06/05 02:34:39;;;;;;;5.13;2.10;;;16.90;99.90;;;;;;5014556;28;20449;-51
2021/06/05 02:37:10;;;;;;;2.83;1.63;;;16.80;99.90;;;;;;5028907;28;20469;-50
2021/06/05 02:39:39;;;;;;;1.83;1.73;;;16.80;99.90;;;;;;5033158;28;20456;-50
2021/06/05 02:42:11;;;;;;;1.80;1.70;;;16.80;99.90;;;;;;5033597;28;20449;-51
2021/06/05 02:44:41;;;;;;;4.10;2.00;;;16.90;99.90;;;;;;5034060;28;20472;-50
2021/06/05 02:47:09;;;;;;;2.23;1.80;;;17.00;99.90;;;;;;5033608;28;20468;-51
2021/06/05 02:49:38;;;;;;;3.00;2.17;;;17.00;99.90;;;;;;5030399;28;20445;-51
2021/06/05 02:52:08;;;;;;;3.37;2.00;;;17.10;99.90;;;;;;5018665;28;20479;-50
2021/06/05 02:54:35;;;;;;;2.43;2.13;;;17.00;99.90;;;;;;5033102;28;20456;-50
2021/06/05 02:57:04;;;;;;;4.17;2.10;;;17.00;99.90;;;;;;5032467;28;21024;-49
2021/06/05 02:59:31;;;;;;;3.20;2.27;;;17.00;99.90;;;;;;5028352;28;20772;-50
2021/06/05 03:01:57;;;;;;;3.63;2.57;;;17.00;99.90;;;;;;5033107;28;20491;-49
2021/06/05 03:04:24;;;;;;;3.07;2.20;;;16.80;99.90;;;;;;5032831;28;20448;-50
2021/06/05 03:06:52;;;;;;;3.97;2.40;;;16.80;99.90;;;;;;5032150;28;20519;-50
2021/06/05 03:09:19;;;;;;;3.40;2.47;;;16.90;99.90;;;;;;5032973;28;20456;-50
2021/06/05 03:11:47;;;;;;;3.30;3.10;;;16.90;99.90;;;;;;5032752;28;20480;-49
2021/06/05 03:14:14;;;;;;;3.80;3.30;;;16.90;99.90;;;;;;5031117;28;20444;-49
2021/06/05 03:16:41;;;;;;;5.27;3.37;;;16.70;99.90;;;;;;5032516;28;20989;-50
2021/06/05 03:19:07;;;;;;;5.00;3.60;;;16.70;99.90;;;;;;5018701;28;20460;-50
2021/06/05 03:21:34;;;;;;;5.73;3.50;;;16.70;99.90;;;;;;5022945;28;20538;-50
2021/06/05 03:24:03;;;;;;;4.03;3.60;;;16.70;99.90;;;;;;5033015;28;20448;-50
2021/06/05 03:26:29;;;;;;;6.60;4.67;;;16.70;99.90;;;;;;5032417;28;20464;-49
2021/06/05 03:28:56;;;;;;;6.30;5.50;;;16.70;99.90;;;;;;5032778;28;20499;-49
2021/06/05 03:31:23;;;;;;;7.23;5.40;;;16.80;99.90;;;;;;5032510;28;20519;-50
2021/06/05 03:33:50;;;;;;;7.77;5.43;;;16.80;99.90;;;;;;5019137;28;20994;-51
2021/06/05 03:36:21;;;;;;;6.90;6.20;;;16.80;99.90;;;;;;5014083;28;20476;-50
2021/06/05 03:38:47;;;;;;;10.73;6.50;;;16.80;99.90;;;;;;5012970;28;20968;-50
2021/06/05 03:41:18;;;;;;;8.53;6.07;;;16.80;99.90;;;;;;5016833;28;20950;-50
2021/06/05 03:43:45;;;;;;;9.83;6.70;;;16.70;99.90;;;;;;5032498;28;20562;-49
2021/06/05 03:46:11;;;;;;;7.03;6.33;;;16.70;99.90;;;;;;5031383;28;20457;-50
2021/06/05 03:48:38;;;;;;;9.13;5.63;;;16.60;99.90;;;;;;5029598;28;20870;-50
2021/06/05 03:51:06;;;;;;;8.47;5.77;;;16.60;99.90;;;;;;5032288;28;20841;-50
2021/06/05 03:53:33;;;;;;;6.90;5.90;;;16.50;99.90;;;;;;5031934;28;21067;-49
2021/06/05 03:56:00;;;;;;;6.87;5.60;;;16.50;99.90;;;;;;5032011;28;20459;-49
2021/06/05 03:58:36;;;;;;;7.63;5.50;;;16.50;99.90;;;;;;5054265;22;20915;-51
2021/06/05 04:01:04;;;;;;;8.30;5.37;;;16.40;99.90;;;;;;5029609;28;20471;-51
2021/06/05 04:03:30;;;;;;;9.53;5.90;;;16.50;99.90;;;;;;5030857;28;20453;-52
2021/06/05 04:05:56;;;;;;;8.33;5.37;;;16.50;99.90;;;;;;5031768;28;20449;-51
2021/06/05 04:08:23;;;;;;;8.70;5.40;;;16.60;99.90;;;;;;5025791;28;20470;-51
2021/06/05 04:10:50;;;;;;;5.37;4.47;;;16.60;99.90;;;;;;5018326;28;21142;-51
2021/06/05 04:13:16;;;;;;;4.83;4.27;;;16.70;99.90;;;;;;5030710;28;20477;-51
2021/06/05 04:15:44;;;;;;;5.37;4.20;;;16.70;99.90;;;;;;5031374;28;20449;-51
2021/06/05 04:18:14;;;;;;;5.53;4.00;;;16.80;99.90;;;;;;5030956;28;20883;-51
2021/06/05 04:20:41;;;;;;;5.03;4.00;;;16.80;99.90;;;;;;5031312;28;20539;-51
2021/06/05 04:23:10;;;;;;;6.80;4.30;;;16.70;99.90;;;;;;5020701;28;20454;-51
2021/06/05 04:25:37;;;;;;;5.20;3.93;;;16.60;99.90;;;;;;5029102;28;20449;-51
2021/06/05 04:28:05;;;;;;;7.30;5.30;;;16.60;99.90;;;;;;5028705;28;20469;-51
2021/06/05 04:30:34;;;;;;;8.43;5.80;;;16.60;99.90;;;;;;5030560;28;20457;-51
2021/06/05 04:33:02;;;;;;;8.00;5.30;;;16.70;99.90;;;;;;5031146;28;20488;-51
2021/06/05 04:35:29;;;;;;;9.37;5.67;;;16.70;99.90;;;;;;5030514;28;21023;-51
2021/06/05 04:37:55;;;;;;;8.50;5.60;;;16.70;99.90;;;;;;5028926;28;20527;-51
2021/06/05 04:40:22;;;;;;;9.27;6.13;;;16.70;99.90;;;;;;5019754;28;20464;-51
2021/06/05 04:42:49;;;;;;;8.63;6.57;;;16.70;99.90;;;;;;5022982;28;20510;-51
2021/06/05 04:45:17;;;;;;;11.70;6.43;;;16.80;99.90;;;;;;5024292;28;20506;-51
2021/06/05 04:47:43;;;;;;;12.20;6.43;;;16.80;99.90;;;;;;5025996;28;20470;-51
2021/06/05 04:50:15;;;;;;;10.80;7.43;;;16.90;99.90;;;;;;5015683;28;20442;-51
2021/06/05 04:52:41;;;;;;;9.30;6.67;;;17.10;99.90;;;;;;5023705;28;20480;-51
2021/06/05 04:55:10;;;;;;;10.23;5.80;;;17.10;99.90;;;;;;5030225;28;20448;-52
2021/06/05 04:57:37;;;;;;;6.13;5.37;;;17.00;99.90;;;;;;5016890;28;20477;-51
2021/06/05 05:00:06;;;;;;;6.37;5.30;;;17.10;99.90;;;;;;5016267;28;20448;-51
2021/06/05 05:02:33;;;;;;;8.03;5.07;;;17.20;99.90;;;;;;5029841;28;20440;-51
2021/06/05 05:05:00;;;;;;;6.00;5.30;;;17.10;99.90;;;;;;5019238;28;20445;-51
2021/06/05 05:07:28;;;;;;;7.17;5.23;;;17.20;99.90;;;;;;5015979;28;20522;-51
2021/06/05 05:09:54;;;;;;;7.60;5.80;;;17.30;99.90;;;;;;5022711;28;20445;-51
2021/06/05 05:12:21;;;;;;;6.20;4.90;;;17.40;99.90;;;;;;5029643;28;20477;-51
2021/06/05 05:14:48;;;;;;;8.07;5.40;;;17.50;99.90;;;;;;5029058;28;20495;-52
2021/06/05 05:17:14;;;;;;;7.30;5.57;;;17.50;99.90;;;;;;5029845;28;20484;-51
2021/06/05 05:19:41;;;;;;;6.00;4.83;;;17.50;99.90;;;;;;5029780;28;20980;-51
2021/06/05 05:22:08;;;;;;;6.17;5.20;;;17.60;99.90;;;;;;5029546;28;20437;-51
2021/06/05 05:24:35;;;;;;;7.63;4.50;;;17.70;99.90;;;;;;5029480;28;20961;-51
2021/06/05 05:27:02;;;;;;;9.50;5.50;;;17.70;99.90;;;;;;5025640;28;20473;-50
2021/06/05 05:29:29;;;;;;;5.67;5.03;;;17.80;99.90;;;;;;5021976;28;20482;-51
2021/06/05 05:31:55;;;;;;;9.00;5.00;;;17.90;99.90;;;;;;5033067;28;20462;-51
2021/06/05 05:34:22;;;;;;;9.30;5.30;;;18.00;99.90;;;;;;5027469;28;20456;-51
2021/06/05 05:36:48;;;;;;;5.97;5.03;;;18.20;99.90;;;;;;5029355;28;20478;-51
2021/06/05 05:39:17;;;;;;;5.70;4.47;;;18.30;99.90;;;;;;5026144;28;20469;-52
2021/06/05 05:41:49;;;;;;;5.60;4.40;;;18.40;99.90;;;;;;5022139;28;20450;-51
2021/06/05 05:44:16;;;;;;;6.00;4.33;;;18.50;99.90;;;;;;5021742;28;20951;-51
2021/06/05 05:46:42;;;;;;;5.30;4.70;;;18.60;99.90;;;;;;5014739;28;20477;-50
2021/06/05 05:49:09;;;;;;;6.27;4.60;;;18.60;99.90;;;;;;5033055;28;20455;-51
2021/06/05 05:51:36;;;;;;;6.07;5.00;;;18.60;99.90;;;;;;5032744;28;20452;-51
2021/06/05 05:54:02;;;;;;;6.57;4.60;;;18.50;99.90;;;;;;5021456;28;20484;-52
2021/06/05 05:56:31;;;;;;;6.90;4.47;;;18.60;99.90;;;;;;5021321;28;20460;-51
2021/06/05 05:58:59;;;;;;;5.00;4.50;;;18.60;99.90;;;;;;5016629;28;20452;-51
2021/06/05 06:01:29;;;;;;;7.40;4.47;;;18.50;99.90;;;;;;5017370;28;20445;-51
2021/06/05 06:03:57;;;;;;;5.40;4.77;;;18.40;99.90;;;;;;5029160;28;20958;-52
2021/06/05 06:06:26;;;;;;;4.67;4.27;;;18.30;99.90;;;;;;5031601;28;20974;-51
2021/06/05 06:08:52;;;;;;;8.33;5.03;;;18.40;99.90;;;;;;5034084;28;20493;-52
2021/06/05 06:11:20;;;;;;;7.33;4.50;;;18.40;99.90;;;;;;5033087;28;20448;-51
2021/06/05 06:13:46;;;;;;;4.70;4.03;;;18.50;99.90;;;;;;5031828;28;20479;-52
2021/06/05 06:16:17;;;;;;;4.93;3.93;;;18.60;99.90;;;;;;5034036;28;20452;-52
2021/06/05 06:18:44;;;;;;;8.00;4.37;;;18.70;99.90;;;;;;5033928;28;20511;-52
2021/06/05 06:21:14;;;;;;;8.10;4.87;;;18.70;99.90;;;;;;5033680;28;20453;-52
2021/06/05 06:23:42;;;;;;;5.90;4.87;;;18.70;99.90;;;;;;5022173;28;20908;-52
2021/06/05 06:26:12;;;;;;;4.53;4.13;;;18.70;99.90;;;;;;5029415;28;21024;-52
2021/06/05 06:28:41;;;;;;;6.47;4.97;;;18.90;99.90;;;;;;5033282;28;20468;-52
2021/06/05 06:31:10;;;;;;;7.00;4.70;;;19.00;99.90;;;;;;5033600;28;20479;-51
2021/06/05 06:33:38;;;;;;;5.10;4.10;;;19.00;99.90;;;;;;5026118;28;20486;-52
2021/06/05 06:36:06;;;;;;;5.37;4.87;;;19.20;99.90;;;;;;5027857;28;20448;-52
2021/06/05 06:38:36;;;;;;;4.93;4.43;;;19.30;99.90;;;;;;5022194;28;20476;-52
2021/06/05 06:41:05;;;;;;;8.00;5.03;;;19.30;99.90;;;;;;5032971;28;20976;-52
2021/06/05 06:43:32;;;;;;;7.47;5.57;;;19.30;99.90;;;;;;5032825;28;20824;-52
2021/06/05 06:46:02;;;;;;;9.90;5.73;;;19.30;99.90;;;;;;5032704;28;20828;-52
2021/06/05 06:48:29;;;;;;;6.17;5.57;;;19.30;99.90;;;;;;5033081;28;20468;-52
2021/06/05 06:50:57;;;;;;;7.60;6.00;;;19.50;99.90;;;;;;5033005;28;20839;-52
2021/06/05 06:53:23;;;;;;;4.83;4.30;;;19.20;99.90;;;;;;5032821;28;20476;-52
2021/06/05 06:55:50;;;;;;;8.80;6.00;;;19.40;99.90;;;;;;5033130;28;20510;-52
2021/06/05 06:58:17;;;;;;;11.43;5.93;;;19.60;99.90;;;;;;5032844;28;21001;-51
2021/06/05 07:00:46;;;;;;;6.80;4.63;;;19.80;99.90;;;;;;5033284;28;20448;-52
2021/06/05 07:03:13;;;;;;;9.50;5.50;;;19.70;99.90;;;;;;5022934;28;20448;-52
2021/06/05 07:05:40;;;;;;;5.83;5.23;;;19.90;99.90;;;;;;5012994;28;20453;-52
2021/06/05 07:08:10;;;;;;;6.33;4.77;;;20.20;99.90;;;;;;5028606;28;20476;-52
2021/06/05 07:10:38;;;;;;;6.53;5.13;;;20.40;99.90;;;;;;5026152;28;20691;-52
2021/06/05 07:13:05;;;;;;;6.17;5.47;;;20.60;99.90;;;;;;5023671;28;20484;-51
2021/06/05 07:15:32;;;;;;;6.93;6.23;;;20.50;99.90;;;;;;5031769;28;20962;-52
2021/06/05 07:17:59;;;;;;;6.37;5.70;;;20.10;99.90;;;;;;5020206;28;20484;-51
2021/06/05 07:20:26;;;;;;;5.47;4.97;;;20.00;99.90;;;;;;5016692;28;20833;-52
2021/06/05 07:22:53;;;;;;;6.87;5.23;;;20.20;99.90;;;;;;5012510;28;20450;-52
2021/06/05 07:25:21;;;;;;;5.97;5.37;;;20.70;99.90;;;;;;5013042;28;20454;-52
2021/06/05 07:27:48;;;;;;;5.67;5.13;;;21.00;99.90;;;;;;5012392;28;20469;-52
2021/06/05 07:30:16;;;;;;;7.73;5.80;;;21.40;99.90;;;;;;5012589;28;20450;-52
2021/06/05 07:32:43;;;;;;;5.50;4.87;;;22.00;99.90;;;;;;5029628;28;20481;-52
2021/06/05 07:35:10;;;;;;;6.10;4.90;;;22.70;99.90;;;;;;5032291;28;20510;-52
2021/06/05 07:37:37;;;;;;;8.40;6.17;;;23.20;99.90;;;;;;5031927;28;20885;-52
2021/06/05 07:40:07;;;;;;;6.67;5.03;;;23.10;99.90;;;;;;5030840;28;20445;-52
2021/06/05 07:42:36;;;;;;;5.40;4.93;;;22.70;99.90;;;;;;5012589;28;20449;-52
2021/06/05 07:45:07;;;;;;;13.43;5.90;;;22.40;99.90;;;;;;5019620;28;20838;-52
2021/06/05 07:47:34;;;;;;;5.20;4.70;;;22.30;99.90;;;;;;5028975;28;20527;-52
2021/06/05 07:50:00;;;;;;;7.60;4.80;;;22.10;99.90;;;;;;5020600;28;20452;-52
2021/06/05 07:52:27;;;;;;;5.90;5.40;;;21.80;99.90;;;;;;5029302;28;21053;-52
2021/06/05 07:54:55;;;;;;;5.83;5.27;;;21.00;99.90;;;;;;5012733;28;20450;-51
2021/06/05 07:57:22;;;;;;;7.77;5.33;;;20.30;99.90;;;;;;5011370;28;20889;-52
2021/06/05 07:59:51;;;;;;;5.33;4.70;;;20.00;99.90;;;;;;5022622;28;20546;-52
2021/06/05 08:02:18;;;;;;;6.03;5.43;;;20.30;99.90;;;;;;5012857;28;20477;-52
2021/06/05 08:04:46;;;;;;;6.50;4.80;;;20.20;99.90;;;;;;5011463;28;20452;-52
2021/06/05 08:07:13;;;;;;;5.57;5.03;;;20.60;99.90;;;;;;5030084;28;20475;-52
2021/06/05 08:09:40;;;;;;;6.40;5.70;;;20.80;99.90;;;;;;5018302;28;20465;-51
2021/06/05 08:12:08;;;;;;;5.50;4.47;;;20.80;99.90;;;;;;5023097;28;20445;-52
2021/06/05 08:14:35;;;;;;;7.00;5.40;;;20.80;99.90;;;;;;5029190;28;20830;-51
2021/06/05 08:17:03;;;;;;;5.40;4.90;;;20.80;99.90;;;;;;5010988;28;20457;-52
2021/06/05 08:19:31;;;;;;;5.70;4.80;;;20.50;99.90;;;;;;5012031;28;20468;-51
2021/06/05 08:21:58;;;;;;;5.43;4.87;;;20.30;99.90;;;;;;5011024;28;20967;-52
2021/06/05 08:24:25;;;;;;;5.83;5.00;;;20.70;99.90;;;;;;5011242;28;20484;-52
2021/06/05 08:26:52;;;;;;;8.10;5.60;;;20.40;99.90;;;;;;5012119;28;20473;-52
2021/06/05 08:29:20;;;;;;;7.10;4.90;;;20.30;99.90;;;;;;5010852;28;20449;-52
2021/06/05 08:31:49;;;;;;;5.13;4.23;;;20.10;99.90;;;;;;5010823;28;20568;-52
2021/06/05 08:34:18;;;;;;;5.17;4.60;;;20.40;99.90;;;;;;5016427;28;20564;-51
2021/06/05 08:36:45;;;;;;;5.23;4.07;;;20.80;99.90;;;;;;5017172;28;20527;-52
2021/06/05 08:39:13;;;;;;;8.60;4.83;;;21.00;99.90;;;;;;5011020;28;20446;-52
2021/06/05 08:41:43;;;;;;;5.70;4.80;;;21.00;99.90;;;;;;5013263;28;20452;-52
2021/06/05 08:44:14;;;;;;;4.60;4.20;;;21.10;99.90;;;;;;5029151;28;20448;-52
2021/06/05 08:46:44;;;;;;;3.90;3.50;;;21.50;99.90;;;;;;5029337;28;20471;-51
2021/06/05 08:49:18;;;;;;;5.77;3.97;;;21.50;99.90;;;;;;5029643;28;20819;-52
2021/06/05 08:52:06;;;;;;;4.40;3.97;;;21.90;99.90;;;;;;5028985;28;20444;-53
2021/06/05 08:54:41;;;;;;;4.87;4.30;;;22.00;99.90;;;;;;5018501;28;20522;-52
2021/06/05 08:57:25;;;;;;;7.30;4.40;;;22.30;99.90;;;;;;5026468;28;20476;-52
2021/06/05 08:59:53;;;;;;;4.60;4.17;;;22.50;99.90;;;;;;5010823;28;20644;-52
2021/06/05 09:02:25;;;;;;;5.80;4.87;;;22.90;99.90;;;;;;5010565;28;20499;-53
2021/06/05 09:04:53;;;;;;;5.83;4.60;;;23.40;99.90;;;;;;5014164;28;20814;-52
2021/06/05 09:07:21;;;;;;;3.93;3.63;;;23.80;99.90;;;;;;5016317;28;20477;-52
2021/06/05 09:09:50;;;;;;;3.80;3.50;;;23.90;99.90;;;;;;5033213;28;20471;-53
2021/06/05 09:12:17;;;;;;;4.53;4.10;;;23.60;99.90;;;;;;5032965;28;20444;-52
2021/06/05 09:14:45;;;;;;;7.30;5.70;;;23.30;99.90;;;;;;5031789;28;20782;-52
2021/06/05 09:17:18;;;;;;;8.40;6.10;;;22.80;99.90;;;;;;5024882;28;20468;-52
2021/06/05 09:20:04;;;;;;;6.43;5.17;;;21.50;99.90;;;;;;5015300;28;20453;-52
2021/06/05 09:22:33;;;;;;;6.00;5.40;;;20.90;99.90;;;;;;5022877;28;20457;-51
2021/06/05 09:25:20;;;;;;;5.63;5.10;;;20.40;99.90;;;;;;5025959;28;20449;-52
2021/06/05 09:27:47;;;;;;;5.93;4.40;;;20.70;99.90;;;;;;5033264;28;20471;-52
2021/06/05 09:30:31;;;;;;;5.27;4.70;;;21.20;99.90;;;;;;5033532;28;20449;-52
2021/06/05 09:33:00;;;;;;;6.33;5.73;;;21.20;99.90;;;;;;5033537;28;20508;-52
2021/06/05 09:35:30;;;;;;;5.30;4.80;;;20.70;99.90;;;;;;5015252;28;20453;-52
2021/06/05 09:38:18;;;;;;;5.80;4.90;;;20.40;99.90;;;;;;5014972;28;20481;-52
2021/06/05 09:41:03;;;;;;;8.10;4.50;;;20.60;99.90;;;;;;5014919;28;20963;-52
2021/06/05 09:43:30;;;;;;;5.90;4.70;;;20.70;99.90;;;;;;5010809;28;20443;-52
2021/06/05 09:46:10;;;;;;;4.70;4.30;;;20.70;99.90;;;;;;5016235;28;20206;-52
2021/06/05 09:48:41;;;;;;;7.13;4.70;;;21.00;99.90;;;;;;5014340;28;20469;-52
2021/06/05 09:51:35;;;;;;;4.13;3.73;;;21.80;99.90;;;;;;5014502;28;20445;-53
2021/06/05 09:54:07;;;;;;;4.10;3.80;;;22.80;99.90;;;;;;5016096;28;21001;-52
2021/06/05 09:56:37;;;;;;;5.07;4.57;;;23.50;99.90;;;;;;5017843;28;20453;-52
2021/06/05 09:59:08;;;;;;;6.70;4.33;;;23.20;99.90;;;;;;5024084;22;20563;-57
2021/06/05 10:01:37;;;;;;;7.17;5.50;;;22.70;99.90;;;;;;5007748;28;20515;-56
2021/06/05 10:04:17;;;;;;;4.47;4.07;;;22.00;99.90;;;;;;5004750;28;20465;-57
2021/06/05 10:06:49;;;;;;;4.87;4.37;;;21.90;99.90;;;;;;5010664;28;20446;-57
2021/06/05 10:09:31;;;;;;;4.47;4.07;;;22.60;99.90;;;;;;5012031;28;20502;-57
2021/06/05 10:12:01;;;;;;;5.87;4.40;;;22.90;99.90;;;;;;5014498;28;20449;-56
2021/06/05 10:14:47;;;;;;;5.13;4.40;;;23.30;99.90;;;;;;5013694;28;20485;-56
2021/06/05 10:17:24;;;;;;;6.00;5.50;;;23.50;99.90;;;;;;5011042;28;20951;-56
2021/06/05 10:19:54;;;;;;;6.67;5.77;;;22.80;99.90;;;;;;5012060;28;20472;-56
2021/06/05 10:22:25;;;;;;;5.10;4.60;;;22.10;99.90;;;;;;5012665;28;20450;-56
2021/06/05 10:24:56;;;;;;;5.40;4.90;;;21.70;99.90;;;;;;5013713;28;20453;-57
2021/06/05 10:27:26;;;;;;;5.13;4.67;;;22.00;99.90;;;;;;5013895;28;20531;-56
2021/06/05 10:29:57;;;;;;;5.93;5.43;;;22.20;99.90;;;;;;5014500;28;20460;-56
2021/06/05 10:32:26;;;;;;;5.83;5.20;;;21.80;99.90;;;;;;5013773;28;21099;-56
2021/06/05 10:34:57;;;;;;;6.30;5.23;;;21.30;99.90;;;;;;5011610;28;20839;-55
2021/06/05 10:37:28;;;;;;;6.03;5.00;;;21.20;99.90;;;;;;5013095;28;20480;-57
2021/06/05 10:39:57;;;;;;;4.53;3.80;;;21.00;99.90;;;;;;5014178;28;20460;-56
2021/06/05 10:42:26;;;;;;;5.30;4.43;;;21.30;99.90;;;;;;5013445;28;20949;-57
2021/06/05 10:44:53;;;;;;;4.80;4.40;;;21.40;99.90;;;;;;5010590;28;20453;-56
2021/06/05 10:47:24;;;;;;;4.30;3.90;;;21.30;99.90;;;;;;5001844;28;20982;-56
2021/06/05 10:49:55;;;;;;;7.73;4.23;;;20.60;99.90;;;;;;5014062;28;20538;-56
2021/06/05 10:52:31;;;;;;;5.40;4.90;;;20.90;99.90;;;;;;5013286;28;20457;-57
2021/06/05 10:55:00;;;;;;;5.73;4.30;;;21.30;99.90;;;;;;5012705;28;20460;-56
2021/06/05 10:57:36;;;;;;;4.97;4.23;;;21.50;99.90;;;;;;5008688;28;20486;-56
2021/06/05 11:00:25;;;;;;;5.80;5.20;;;21.40;99.90;;;;;;5009898;28;20536;-56
2021/06/05 11:02:54;;;;;;;9.10;6.53;;;21.00;99.90;;;;;;4994071;28;20457;-56
2021/06/05 11:05:45;;;;;;;9.33;6.03;;;20.80;99.90;;;;;;5006924;28;20458;-57
2021/06/05 11:08:42;;;;;;;8.80;6.17;;;20.50;99.90;;;;;;5013687;28;20473;-56
2021/06/05 11:11:41;;;;;;;6.43;5.67;;;19.80;99.90;;;;;;5011385;28;20450;-56
2021/06/05 11:14:24;;;;;;;8.33;6.50;;;19.50;99.90;;;;;;5013216;28;20473;-56
2021/06/05 11:17:32;;;;;;;6.50;5.90;;;19.30;99.90;;;;;;4987827;28;20481;-57
2021/06/05 11:20:35;;;;;;;7.90;6.70;;;19.20;99.90;;;;;;4976163;28;20458;-57
2021/06/05 11:23:27;;;;;;;9.10;7.17;;;19.10;99.90;;;;;;5011641;28;20445;-56
2021/06/05 11:25:57;;;;;;;8.20;6.80;;;18.90;99.90;;;;;;5010950;28;20486;-56
2021/06/05 11:28:42;;;;;;;8.60;7.53;;;18.80;99.90;;;;;;5011148;28;20484;-56
2021/06/05 11:31:40;;;;;;;8.70;6.80;;;18.60;99.90;;;;;;5009729;28;20485;-56
2021/06/05 11:34:08;;;;;;;8.03;6.70;;;18.50;99.90;;;;;;5012143;28;21030;-57
2021/06/05 11:36:48;;;;;;;8.00;6.90;;;18.70;99.90;;;;;;5012850;28;20462;-56
2021/06/05 11:39:46;;;;;;;7.40;6.17;;;18.60;99.90;;;;;;5012840;28;21012;-56
2021/06/05 11:42:54;;;;;;;6.37;5.43;;;18.80;99.90;;;;;;5013048;28;20453;-56
2021/06/05 11:45:35;;;;;;;5.60;4.43;;;18.70;99.90;;;;;;5012872;28;20452;-56
2021/06/05 11:48:22;;;;;;;5.07;3.00;;;18.40;99.90;;;;;;5012861;28;20850;-56
2021/06/05 11:51:32;;;;;;;2.03;1.93;;;18.30;99.90;;;;;;5012798;28;20449;-57
2021/06/05 11:54:01;;;;;;;2.80;1.83;;;18.10;99.90;;;;;;4997669;28;20854;-56
2021/06/05 11:56:33;;;;;;;1.87;1.73;;;18.30;99.90;;;;;;5012738;28;20452;-57
2021/06/05 11:59:30;;;;;;;1.97;1.87;;;18.30;99.90;;;;;;5012553;28;20856;-56
2021/06/05 12:02:06;;;;;;;1.90;1.60;;;18.30;99.90;;;;;;5012570;28;20548;-57
2021/06/05 12:04:39;;;;;;;3.33;1.63;;;18.20;99.90;;;;;;5012845;28;20445;-56
2021/06/05 12:07:25;;;;;;;3.47;1.30;;;18.40;99.90;;;;;;5012025;28;20972;-57
2021/06/05 12:09:56;;;;;;;1.77;1.10;;;18.50;99.90;;;;;;5012498;28;20943;-56
2021/06/05 12:12:24;;;;;;;0.97;0.80;;;18.30;99.90;;;;;;5012310;28;20457;-56
2021/06/05 12:15:00;;;;;;;1.57;0.70;;;18.20;99.90;;;;;;5002253;28;20480;-56
2021/06/05 12:17:32;;;;;;;0.90;0.90;;;17.80;99.90;;;;;;5014075;28;20469;-56
2021/06/05 12:20:07;;;;;;;0.80;0.80;;;17.70;99.90;;;;;;5010171;28;20467;-56
2021/06/05 12:22:34;;;;;;;1.00;0.90;;;17.70;99.90;;;;;;5010795;28;20514;-56
2021/06/05 12:25:00;;;;;;;1.07;0.73;;;17.70;99.90;;;;;;5011197;28;20449;-56
2021/06/05 12:27:30;;;;;;;1.17;0.77;;;17.70;99.90;;;;;;5012280;28;20469;-55
2021/06/05 12:30:16;;;;;;;3.17;0.90;;;17.60;99.90;;;;;;5010893;28;20453;-56
2021/06/05 12:32:54;;;;;;;1.63;1.03;;;17.60;99.90;;;;;;4992354;28;20485;-56
2021/06/05 12:35:24;;;;;;;5.67;1.60;;;17.80;99.90;;;;;;5005373;28;20508;-57
2021/06/05 12:37:54;;;;;;;3.47;1.30;;;17.90;99.90;;;;;;5003555;28;20561;-56
2021/06/05 12:40:28;;;;;;;1.60;1.03;;;17.90;99.90;;;;;;4995300;28;20774;-56
2021/06/05 12:42:55;;;;;;;2.30;1.40;;;17.70;99.90;;;;;;5015292;28;21049;-56
2021/06/05 12:45:26;;;;;;;1.40;1.20;;;17.60;99.90;;;;;;5014842;28;20549;-56
2021/06/05 12:47:56;;;;;;;2.10;1.43;;;17.50;99.90;;;;;;5013596;28;20474;-57
2021/06/05 12:50:26;;;;;;;3.57;1.57;;;17.40;99.90;;;;;;5012535;28;20449;-57
2021/06/05 12:52:54;;;;;;;3.17;1.40;;;17.20;99.90;;;;;;5007326;28;21009;-57
2021/06/05 12:55:30;;;;;;;1.20;1.03;;;17.10;99.90;;;;;;5004094;28;20454;-56
2021/06/05 12:57:58;;;;;;;3.00;1.07;;;16.80;99.90;;;;;;5008276;28;20480;-55
2021/06/05 13:00:40;;;;;;;2.60;1.53;;;16.80;99.90;;;;;;5008844;28;20455;-56
2021/06/05 13:03:27;;;;;;;2.10;1.30;;;16.60;99.90;;;;;;5006596;28;20462;-57
2021/06/05 13:06:17;;;;;;;1.30;1.20;;;16.50;99.90;;;;;;5004760;28;20233;-58